< Typhoon 195313 1953 Season Typhoon 195315 >
Typhoon 195314 (NO-NAME)
General InformationTrack Information on Google Maps || Disaster Info.ResourceGoogle EarthGE AnimationAtom FeedGeoJSON
Detalied Best Track (Time Zone = UTC)
Year Month Day Hour Lat. Long. Pressure (hPa) Wind (kt) Class Image Chart
1953 9 24 00 16.0 109.7 1000 0 2 -- Chart
1953 9 24 06 16.0 110.0 1000 0 2 -- Chart
1953 9 24 12 16.0 110.3 1000 0 2 -- Chart
1953 9 24 18 15.9 110.7 1000 0 2 -- Chart
1953 9 25 00 15.8 111.0 1000 0 2 -- Chart
1953 9 25 06 15.8 111.5 998 0 2 -- Chart
1953 9 25 12 16.0 112.1 998 0 2 -- Chart
1953 9 25 18 16.2 112.5 998 0 2 -- Chart
1953 9 26 00 16.5 112.7 998 0 2 -- Chart
1953 9 26 06 17.2 113.2 998 0 2 -- Chart
1953 9 26 12 18.0 113.3 998 0 9 -- Chart
1953 9 26 18 18.5 113.1 998 0 9 -- Chart
1953 9 27 00 18.7 112.5 998 0 9 -- Chart
1953 9 27 06 18.9 111.8 1000 0 9 -- Chart
1953 9 27 12 19.0 111.3 1000 0 9 -- Chart
1953 9 27 18 19.2 110.8 1000 0 9 -- Chart
1953 9 28 00 19.1 110.0 1000 0 9 -- Chart
1953 9 28 06 19.0 109.2 1000 0 9 -- Chart
1953 9 28 12 19.0 108.4 1000 0 9 -- Chart
1953 9 28 18 19.0 107.2 1000 0 9 -- Chart
1953 9 29 00 18.5 107.5 1006 0 9 -- Chart
1953 9 29 06 18.1 108.3 1004 0 9 -- Chart
1953 9 29 12 18.0 109.0 1006 0 9 -- Chart
1953 9 29 18 17.5 108.4 1006 0 9 -- Chart
1953 9 30 00 17.1 107.9 1006 0 9 -- Chart
1953 9 30 06 16.8 107.5 1004 0 9 -- Chart
1953 9 30 12 16.0 106.5 1004 0 2 -- Chart
Japan Meteorological Agency Best Track Data | Correction Date : 1989-06-01
< Typhoon 195313 1953 Season Typhoon 195315 >

Help